createdAt,value
2018-01-25T00:00:14.934Z,84.3
2018-01-25T00:01:25.117Z,84.11
2018-01-25T00:02:35.271Z,84.11
2018-01-25T00:03:45.527Z,84.01
2018-01-25T00:04:55.712Z,84.01
2018-01-25T00:06:05.881Z,84.11
2018-01-25T00:07:16.128Z,84.07
2018-01-25T00:08:26.312Z,83.92
2018-01-25T00:09:36.682Z,83.88
2018-01-25T00:10:46.873Z,83.92
2018-01-25T00:11:57.102Z,83.83
2018-01-25T00:13:07.360Z,83.83
2018-01-25T00:14:17.604Z,83.73
2018-01-25T00:15:27.789Z,83.83
2018-01-25T00:16:37.919Z,84.01
2018-01-25T00:17:48.158Z,83.97
2018-01-25T00:18:58.342Z,83.92
2018-01-25T00:20:08.584Z,83.88
2018-01-25T00:21:18.801Z,83.92
2018-01-25T00:22:29.135Z,83.73
2018-01-25T00:23:39.323Z,83.44
2018-01-25T00:24:49.506Z,83.64
2018-01-25T00:25:59.681Z,83.64
2018-01-25T00:27:09.810Z,83.64
2018-01-25T00:28:20.068Z,83.83
2018-01-25T00:29:30.444Z,83.35
2018-01-25T00:30:40.654Z,83.25
2018-01-25T00:31:50.855Z,83.64
2018-01-25T00:33:01.066Z,83.54
2018-01-25T00:34:11.251Z,83.16
2018-01-25T00:35:21.454Z,83.44
2018-01-25T00:36:31.585Z,83.64
2018-01-25T00:37:41.805Z,83.35
2018-01-25T00:38:51.686Z,83.35
2018-01-25T00:40:01.589Z,83.54
2018-01-25T00:41:11.771Z,84.01
2018-01-25T00:42:21.926Z,83.35
2018-01-25T00:43:32.107Z,83.44
2018-01-25T00:44:42.223Z,83.44
2018-01-25T00:45:52.405Z,82.97
2018-01-25T00:47:02.686Z,83.35
2018-01-25T00:48:12.866Z,83.16
2018-01-25T00:49:23.239Z,82.97
2018-01-25T00:50:33.429Z,82.97
2018-01-25T00:51:43.626Z,82.87
2018-01-25T00:52:53.778Z,83.35
2018-01-25T00:54:03.917Z,82.87
2018-01-25T00:55:13.829Z,83.25
2018-01-25T00:56:24.022Z,82.78
2018-01-25T00:57:34.229Z,83.06
2018-01-25T00:58:44.375Z,83.16
2018-01-25T00:59:54.672Z,83.25
2018-01-25T01:01:04.523Z,83.25
2018-01-25T01:02:14.746Z,82.78
2018-01-25T01:03:24.937Z,82.78
2018-01-25T01:04:35.099Z,82.49
2018-01-25T01:05:45.313Z,82.68
2018-01-25T01:06:55.527Z,82.3
2018-01-25T01:08:05.705Z,82.49
2018-01-25T01:09:15.879Z,82.4
2018-01-25T01:10:26.040Z,82.68
2018-01-25T01:11:36.202Z,82.49
2018-01-25T01:12:46.317Z,82.68
2018-01-25T01:13:56.445Z,82.49
2018-01-25T01:15:06.616Z,82.49
2018-01-25T01:16:16.835Z,82.49
2018-01-25T01:17:27.023Z,82.11
2018-01-25T01:18:37.152Z,82.3
2018-01-25T01:19:47.295Z,82.3
2018-01-25T01:20:57.402Z,82.11
2018-01-25T01:22:07.544Z,82.01
2018-01-25T01:23:17.672Z,82.3
2018-01-25T01:24:27.847Z,82.2
2018-01-25T01:25:38.004Z,82.4
2018-01-25T01:26:48.331Z,82.49
2018-01-25T01:27:58.581Z,82.2
2018-01-25T01:29:08.792Z,82.4
2018-01-25T01:30:19.041Z,82.4
2018-01-25T01:31:29.360Z,82.4
2018-01-25T01:32:39.482Z,82.3
2018-01-25T01:33:49.382Z,82.2
2018-01-25T01:34:59.533Z,82.3
2018-01-25T01:36:09.650Z,82.2
2018-01-25T01:37:19.888Z,82.4
2018-01-25T01:38:30.063Z,82.3
2018-01-25T01:39:40.000Z,82.4
2018-01-25T01:40:50.147Z,82.4
2018-01-25T01:42:00.305Z,82.49
2018-01-25T01:43:10.227Z,81.73
2018-01-25T01:44:20.427Z,81.82
2018-01-25T01:45:30.542Z,81.92
2018-01-25T01:46:40.657Z,81.73
2018-01-25T01:47:50.896Z,82.01
2018-01-25T01:49:01.025Z,82.4
2018-01-25T01:50:11.137Z,82.3
2018-01-25T01:51:21.242Z,82.4
2018-01-25T01:52:31.355Z,82.4
2018-01-25T01:53:41.496Z,82.2
2018-01-25T01:54:51.627Z,82.2
2018-01-25T01:56:01.818Z,82.4
2018-01-25T01:57:11.746Z,82.2
2018-01-25T01:58:21.889Z,82.4
2018-01-25T01:59:32.073Z,82.4
2018-01-25T02:00:42.312Z,82.11
2018-01-25T02:01:52.182Z,82.3
2018-01-25T02:03:02.291Z,82.11
2018-01-25T02:04:12.462Z,82.11
2018-01-25T02:05:22.852Z,82.01
2018-01-25T02:06:33.089Z,82.11
2018-01-25T02:07:43.224Z,82.01
2018-01-25T02:08:53.427Z,82.4
2018-01-25T02:10:03.677Z,82.2
2018-01-25T02:11:13.649Z,82.49
2018-01-25T02:12:23.777Z,82.4
2018-01-25T02:13:33.886Z,82.49
2018-01-25T02:14:44.124Z,82.59
2018-01-25T02:15:54.313Z,82.3
2018-01-25T02:17:04.463Z,82.3
2018-01-25T02:18:14.651Z,82.4
2018-01-25T02:19:24.865Z,82.4
2018-01-25T02:20:34.999Z,82.3
2018-01-25T02:21:44.887Z,82.3
2018-01-25T02:22:55.103Z,82.01
2018-01-25T02:24:05.264Z,82.11
2018-01-25T02:25:15.389Z,82.01
2018-01-25T02:26:25.506Z,82.49
2018-01-25T02:27:35.607Z,82.11
2018-01-25T02:28:45.718Z,82.11
2018-01-25T02:29:55.911Z,82.3
2018-01-25T02:31:06.161Z,82.3
2018-01-25T02:32:16.363Z,82.4
2018-01-25T02:33:26.553Z,82.11
2018-01-25T02:34:36.718Z,82.49
2018-01-25T02:35:46.827Z,82.3
2018-01-25T02:36:56.724Z,82.68
2018-01-25T02:38:06.874Z,82.59
2018-01-25T02:39:16.988Z,82.68
2018-01-25T02:40:27.142Z,82.4
2018-01-25T02:41:37.284Z,82.68
2018-01-25T02:42:47.376Z,82.49
2018-01-25T02:43:57.490Z,82.78
2018-01-25T02:45:07.675Z,82.68
2018-01-25T02:46:17.791Z,82.49
2018-01-25T02:47:27.962Z,83.44
2018-01-25T02:48:37.748Z,83.25
2018-01-25T02:49:47.852Z,83.16
2018-01-25T02:50:57.982Z,83.35
2018-01-25T02:52:08.214Z,83.16
2018-01-25T02:53:18.351Z,83.06
2018-01-25T02:54:28.504Z,82.97
2018-01-25T02:55:38.609Z,83.25
2018-01-25T02:56:48.722Z,83.44
2018-01-25T02:57:58.856Z,83.44
2018-01-25T02:59:09.174Z,83.64
2018-01-25T03:00:19.302Z,83.92
2018-01-25T03:01:29.535Z,83.73
2018-01-25T03:02:39.728Z,83.44
2018-01-25T03:03:49.883Z,83.54
2018-01-25T03:05:00.050Z,83.64
2018-01-25T03:06:10.310Z,83.44
2018-01-25T03:07:20.546Z,83.35
2018-01-25T03:08:30.753Z,83.21
2018-01-25T03:09:41.049Z,83.25
2018-01-25T03:10:51.266Z,83.31
2018-01-25T03:12:02.512Z,83.69
2018-01-25T03:13:12.668Z,83.73
2018-01-25T03:14:22.954Z,83.64
2018-01-25T03:15:33.183Z,83.73
2018-01-25T03:16:43.486Z,83.97
2018-01-25T03:17:53.654Z,83.78
2018-01-25T03:19:03.884Z,83.64
2018-01-25T03:20:14.068Z,84.07
2018-01-25T03:21:24.248Z,83.83
2018-01-25T03:22:34.449Z,83.97
2018-01-25T03:23:44.632Z,83.83
2018-01-25T03:24:54.825Z,84.01
2018-01-25T03:26:04.708Z,83.97
2018-01-25T03:27:14.554Z,84.01
2018-01-25T03:28:24.655Z,84.45
2018-01-25T03:29:34.796Z,84.64
2018-01-25T03:30:45.069Z,84.49
2018-01-25T03:31:55.233Z,84.26
2018-01-25T03:33:05.371Z,84.36
2018-01-25T03:34:15.488Z,84.45
2018-01-25T03:35:25.605Z,84.26
2018-01-25T03:36:35.740Z,84.45
2018-01-25T03:37:45.907Z,84.36
2018-01-25T03:38:56.092Z,84.36
2018-01-25T03:40:06.079Z,84.55
2018-01-25T03:41:16.204Z,84.45
2018-01-25T03:42:27.285Z,84.36
2018-01-25T03:43:37.578Z,84.55
2018-01-25T03:44:47.754Z,84.64
2018-01-25T03:45:57.968Z,84.64
2018-01-25T03:47:07.777Z,84.74
2018-01-25T03:48:17.946Z,84.55
2018-01-25T03:49:28.079Z,84.55
2018-01-25T03:50:38.288Z,84.45
2018-01-25T03:51:48.532Z,84.55
2018-01-25T03:52:58.683Z,84.74
2018-01-25T03:54:08.546Z,84.92
2018-01-25T03:55:18.800Z,84.74
2018-01-25T03:56:29.033Z,84.74
2018-01-25T03:57:39.275Z,84.64
2018-01-25T03:58:50.454Z,84.74
2018-01-25T04:00:00.578Z,84.64
2018-01-25T04:01:10.780Z,84.92
2018-01-25T04:02:20.946Z,85.02
2018-01-25T04:03:31.095Z,85.02
2018-01-25T04:04:41.239Z,84.92
2018-01-25T04:05:51.373Z,84.74
2018-01-25T04:07:01.492Z,84.55
2018-01-25T04:08:11.595Z,84.69
2018-01-25T04:09:21.752Z,84.69
2018-01-25T04:10:31.863Z,84.69
2018-01-25T04:11:42.032Z,84.45
2018-01-25T04:12:51.909Z,84.64
2018-01-25T04:14:01.781Z,84.64
2018-01-25T04:15:11.957Z,84.45
2018-01-25T04:16:22.189Z,84.36
2018-01-25T04:17:32.441Z,84.74
2018-01-25T04:18:42.715Z,84.64
2018-01-25T04:19:52.905Z,84.74
2018-01-25T04:21:03.048Z,84.69
2018-01-25T04:22:13.153Z,84.16
2018-01-25T04:23:23.289Z,84.4
2018-01-25T04:24:33.399Z,84.3
2018-01-25T04:25:43.739Z,84.4
2018-01-25T04:26:53.891Z,84.3
2018-01-25T04:28:04.002Z,84.59
2018-01-25T04:29:14.200Z,84.59
2018-01-25T04:30:24.403Z,84.4
2018-01-25T04:31:34.554Z,84.4
2018-01-25T04:32:44.801Z,84.49
2018-01-25T04:33:54.657Z,84.4
2018-01-25T04:35:04.798Z,84.49
2018-01-25T04:36:15.078Z,84.4
2018-01-25T04:37:25.297Z,84.3
2018-01-25T04:38:35.167Z,84.88
2018-01-25T04:39:45.354Z,84.4
2018-01-25T04:40:55.511Z,84.4
2018-01-25T04:42:05.726Z,84.4
2018-01-25T04:43:15.928Z,84.2
2018-01-25T04:44:25.798Z,84.4
2018-01-25T04:45:35.913Z,84.88
2018-01-25T04:46:46.080Z,84.69
2018-01-25T04:47:56.247Z,84.78
2018-01-25T04:49:06.365Z,84.49
2018-01-25T04:50:16.483Z,84.78
2018-01-25T04:51:26.588Z,84.88
2018-01-25T04:52:36.489Z,84.49
2018-01-25T04:53:46.660Z,84.49
2018-01-25T04:54:56.793Z,84.49
2018-01-25T04:56:06.899Z,84.88
2018-01-25T04:57:16.748Z,84.78
2018-01-25T04:58:26.852Z,84.59
2018-01-25T04:59:36.990Z,84.69
2018-01-25T05:00:47.325Z,84.49
2018-01-25T05:01:57.551Z,84.59
2018-01-25T05:03:07.802Z,84.69
2018-01-25T05:04:17.977Z,84.92
2018-01-25T05:05:28.227Z,85.06
2018-01-25T05:06:38.342Z,85.02
2018-01-25T05:07:48.588Z,84.83
2018-01-25T05:08:58.806Z,84.88
2018-01-25T05:10:08.981Z,85.16
2018-01-25T05:11:19.097Z,84.83
2018-01-25T05:12:29.201Z,85.35
2018-01-25T05:13:39.329Z,85.25
2018-01-25T05:14:49.478Z,85.25
2018-01-25T05:15:59.635Z,85.25
2018-01-25T05:17:09.761Z,85.35
2018-01-25T05:18:20.141Z,85.31
2018-01-25T05:19:30.388Z,85.31
2018-01-25T05:20:40.547Z,85.06
2018-01-25T05:21:50.767Z,85.06
2018-01-25T05:23:00.980Z,85.35
2018-01-25T05:24:10.874Z,84.97
2018-01-25T05:25:20.978Z,85.12
2018-01-25T05:26:31.195Z,85.02
2018-01-25T05:27:42.333Z,85.35
2018-01-25T05:28:52.567Z,85.06
2018-01-25T05:30:02.722Z,85.35
2018-01-25T05:31:12.877Z,85.41
2018-01-25T05:32:23.050Z,85.25
2018-01-25T05:33:33.171Z,85.12
2018-01-25T05:34:43.025Z,85.25
2018-01-25T05:35:53.166Z,85.16
2018-01-25T05:37:03.293Z,85.06
2018-01-25T05:38:13.461Z,85.06
2018-01-25T05:39:23.661Z,85.25
2018-01-25T05:40:33.480Z,85.06
2018-01-25T05:41:43.599Z,85.25
2018-01-25T05:42:53.719Z,85.25
2018-01-25T05:44:03.864Z,85.06
2018-01-25T05:45:13.973Z,85.16
2018-01-25T05:46:24.158Z,85.45
2018-01-25T05:47:34.354Z,85.54
2018-01-25T05:48:44.499Z,85.35
2018-01-25T05:49:54.694Z,85.35
2018-01-25T05:51:04.917Z,85.88
2018-01-25T05:52:14.689Z,85.54
2018-01-25T05:53:24.849Z,85.64
2018-01-25T05:54:35.031Z,86.11
2018-01-25T05:55:45.172Z,86.4
2018-01-25T05:56:55.344Z,86.36
2018-01-25T05:58:05.513Z,86.78
2018-01-25T05:59:15.653Z,86.21
2018-01-25T06:00:25.795Z,86.49
2018-01-25T06:01:35.950Z,87.07
2018-01-25T06:02:46.140Z,86.88
2018-01-25T06:03:56.343Z,87.54
2018-01-25T06:05:06.464Z,87.35
2018-01-25T06:06:16.379Z,88.12
2018-01-25T06:07:26.568Z,88.21
2018-01-25T06:08:36.761Z,88.07
2018-01-25T06:09:46.879Z,88.5
2018-01-25T06:10:57.128Z,88.55
2018-01-25T06:12:07.343Z,88.64
2018-01-25T06:13:17.201Z,88.36
2018-01-25T06:14:27.105Z,88.93
2018-01-25T06:15:37.254Z,89.22
2018-01-25T06:16:47.374Z,89.22
2018-01-25T06:17:57.540Z,89.4
2018-01-25T06:19:07.668Z,89.69
2018-01-25T06:20:17.786Z,90.17
2018-01-25T06:21:27.911Z,90.26
2018-01-25T06:22:38.062Z,90.17
2018-01-25T06:23:48.322Z,90.74
2018-01-25T06:24:58.464Z,90.74
2018-01-25T06:26:08.620Z,91.98
2018-01-25T06:27:18.759Z,91.31
2018-01-25T06:28:28.978Z,91.31
2018-01-25T06:29:39.215Z,91.22
2018-01-25T06:30:49.350Z,91.88
2018-01-25T06:31:59.239Z,91.69
2018-01-25T06:33:09.429Z,91.84
2018-01-25T06:34:19.583Z,91.79
2018-01-25T06:35:29.739Z,92.17
2018-01-25T06:36:39.708Z,92.46
2018-01-25T06:37:49.942Z,91.69
2018-01-25T06:39:00.164Z,92.27
2018-01-25T06:40:10.378Z,92.27
2018-01-25T06:41:20.606Z,92.65
2018-01-25T06:42:30.791Z,92.36
2018-01-25T06:43:41.020Z,92.27
2018-01-25T06:44:51.144Z,92.27
2018-01-25T06:46:01.377Z,92.27
2018-01-25T06:47:11.726Z,92.93
2018-01-25T06:48:21.932Z,92.5
2018-01-25T06:49:32.084Z,92.6
2018-01-25T06:50:42.069Z,92.89
2018-01-25T06:51:52.199Z,92.6
2018-01-25T06:53:02.349Z,92.89
2018-01-25T06:54:12.480Z,92.89
2018-01-25T06:55:22.649Z,92.89
2018-01-25T06:56:32.867Z,92.6
2018-01-25T06:57:43.172Z,92.89
2018-01-25T06:58:53.049Z,93.17
2018-01-25T07:00:02.910Z,92.98
2018-01-25T07:01:13.040Z,92.98
2018-01-25T07:02:23.176Z,92.79
2018-01-25T07:03:33.292Z,92.89
2018-01-25T07:04:43.152Z,92.32
2018-01-25T07:05:53.270Z,92.32
2018-01-25T07:07:03.389Z,92.89
2018-01-25T07:08:13.731Z,92.41
2018-01-25T07:09:23.960Z,92.89
2018-01-25T07:10:34.191Z,92.41
2018-01-25T07:11:44.407Z,92.98
2018-01-25T07:12:54.598Z,92.98
2018-01-25T07:14:04.714Z,92.5
2018-01-25T07:15:14.931Z,92.89
2018-01-25T07:16:25.200Z,92.89
2018-01-25T07:17:35.425Z,92.89
2018-01-25T07:18:45.749Z,92.89
2018-01-25T07:19:55.966Z,92.32
2018-01-25T07:21:06.194Z,92.6
2018-01-25T07:22:16.394Z,92.5
2018-01-25T07:23:26.534Z,92.32
2018-01-25T07:24:36.490Z,92.41
2018-01-25T07:25:46.621Z,92.98
2018-01-25T07:26:56.724Z,92.69
2018-01-25T07:28:06.978Z,92.79
2018-01-25T07:29:17.156Z,92.41
2018-01-25T07:30:27.370Z,92.79
2018-01-25T07:31:37.580Z,92.41
2018-01-25T07:32:47.806Z,92.5
2018-01-25T07:33:57.696Z,92.41
2018-01-25T07:35:07.915Z,92.79
2018-01-25T07:36:17.765Z,92.41
2018-01-25T07:37:27.905Z,92.89
2018-01-25T07:38:38.043Z,92.5
2018-01-25T07:39:47.790Z,92.79
2018-01-25T07:40:58.012Z,92.5
2018-01-25T07:42:08.184Z,92.6
2018-01-25T07:43:18.415Z,92.5
2018-01-25T07:44:28.671Z,92.5
2018-01-25T07:45:38.824Z,92.6
2018-01-25T07:46:49.012Z,92.6
2018-01-25T07:47:59.225Z,92.69
2018-01-25T07:49:09.496Z,92.89
2018-01-25T07:50:19.642Z,92.89
2018-01-25T07:51:29.809Z,92.69
2018-01-25T07:52:39.972Z,92.6
2018-01-25T07:53:50.108Z,92.98
2018-01-25T07:55:00.253Z,92.89
2018-01-25T07:56:10.390Z,92.32
2018-01-25T07:57:20.568Z,92.6
2018-01-25T07:58:30.445Z,92.69
2018-01-25T07:59:40.367Z,92.6
2018-01-25T08:00:50.537Z,92.79
2018-01-25T08:02:00.666Z,92.89
2018-01-25T08:03:10.800Z,92.98
2018-01-25T08:04:21.013Z,92.89
2018-01-25T08:05:31.190Z,92.89
2018-01-25T08:06:41.326Z,92.6
2018-01-25T08:07:51.619Z,92.89
2018-01-25T08:09:01.784Z,92.79
2018-01-25T08:10:11.974Z,92.32
2018-01-25T08:11:22.104Z,92.5
2018-01-25T08:12:32.224Z,92.32
2018-01-25T08:13:42.137Z,92.5
2018-01-25T08:14:52.325Z,93.27
2018-01-25T08:16:02.463Z,92.79
2018-01-25T08:17:12.719Z,93.27
2018-01-25T08:18:23.078Z,93.17
2018-01-25T08:19:33.294Z,92.89
2018-01-25T08:20:43.482Z,93.27
2018-01-25T08:21:53.660Z,93.17
2018-01-25T08:23:03.896Z,92.79
2018-01-25T08:24:14.016Z,93.27
2018-01-25T08:25:24.174Z,93.27
2018-01-25T08:26:34.350Z,93.27
2018-01-25T08:27:44.461Z,93.08
2018-01-25T08:28:54.639Z,93.46
2018-01-25T08:30:04.784Z,92.6
2018-01-25T08:31:15.078Z,92.5
2018-01-25T08:32:24.942Z,92.6
2018-01-25T08:33:35.060Z,92.79
2018-01-25T08:34:45.276Z,92.5
2018-01-25T08:35:55.454Z,92.41
2018-01-25T08:37:05.662Z,92.41
2018-01-25T08:38:15.838Z,92.32
2018-01-25T08:39:26.196Z,92.79
2018-01-25T08:40:36.426Z,92.6
2018-01-25T08:41:46.666Z,92.89
2018-01-25T08:42:56.885Z,92.6
2018-01-25T08:44:07.061Z,92.6
2018-01-25T08:45:17.287Z,92.6
2018-01-25T08:46:27.457Z,92.69
2018-01-25T08:47:37.574Z,92.79
2018-01-25T08:48:47.995Z,92.22
2018-01-25T08:49:58.268Z,92.22
2018-01-25T08:51:08.474Z,92.22
2018-01-25T08:52:18.604Z,92.22
2018-01-25T08:53:28.856Z,92.32
2018-01-25T08:54:39.028Z,92.5
2018-01-25T08:55:48.904Z,92.41
2018-01-25T08:56:59.056Z,92.41
2018-01-25T08:58:09.219Z,92.41
2018-01-25T08:59:19.081Z,92.6
2018-01-25T09:00:29.212Z,92.22
2018-01-25T09:01:38.998Z,92.22
2018-01-25T09:02:49.261Z,92.08
2018-01-25T09:03:59.383Z,91.55
2018-01-25T09:05:09.551Z,91.65
2018-01-25T09:06:19.682Z,91.94
2018-01-25T09:07:29.821Z,92.22
2018-01-25T09:08:40.011Z,92.03
2018-01-25T09:09:50.142Z,91.74
2018-01-25T09:11:00.298Z,91.94
2018-01-25T09:12:10.487Z,91.74
2018-01-25T09:13:21.671Z,91.74
2018-01-25T09:14:31.835Z,91.6
2018-01-25T09:15:42.028Z,91.6
2018-01-25T09:16:52.167Z,91.69
2018-01-25T09:18:02.540Z,91.79
2018-01-25T09:19:12.821Z,91.41
2018-01-25T09:20:22.960Z,91.69
2018-01-25T09:21:33.189Z,91.6
2018-01-25T09:22:43.307Z,91.79
2018-01-25T09:23:53.606Z,90.93
2018-01-25T09:25:03.832Z,90.93
2018-01-25T09:26:14.071Z,91.22
2018-01-25T09:27:24.246Z,91.22
2018-01-25T09:28:34.574Z,90.93
2018-01-25T09:29:44.786Z,90.64
2018-01-25T09:30:54.975Z,90.74
2018-01-25T09:32:05.195Z,90.55
2018-01-25T09:33:15.325Z,91.13
2018-01-25T09:34:25.455Z,90.93
2018-01-25T09:35:35.599Z,91.03
2018-01-25T09:36:45.761Z,90.93
2018-01-25T09:37:55.927Z,90.36
2018-01-25T09:39:07.100Z,90.08
2018-01-25T09:40:17.316Z,89.98
2018-01-25T09:41:27.473Z,89.98
2018-01-25T09:42:37.268Z,89.89
2018-01-25T09:43:47.317Z,89.89
2018-01-25T09:44:57.437Z,90.17
2018-01-25T09:46:07.624Z,90.17
2018-01-25T09:47:18.022Z,89.98
2018-01-25T09:48:28.267Z,89.89
2018-01-25T09:49:38.219Z,89.69
2018-01-25T09:50:48.378Z,89.98
2018-01-25T09:51:58.510Z,89.79
2018-01-25T09:53:08.361Z,89.12
2018-01-25T09:54:18.521Z,89.12
2018-01-25T09:55:28.728Z,88.74
2018-01-25T09:56:39.856Z,88.26
2018-01-25T09:57:50.126Z,87.98
2018-01-25T09:59:00.292Z,87.98
2018-01-25T10:00:10.614Z,88.26
2018-01-25T10:01:20.791Z,88.07
2018-01-25T10:02:30.658Z,87.88
2018-01-25T10:03:40.812Z,87.5
2018-01-25T10:04:50.954Z,88.07
2018-01-25T10:06:01.234Z,87.5
2018-01-25T10:07:11.410Z,87.69
2018-01-25T10:08:21.616Z,87.4
2018-01-25T10:09:32.719Z,87.4
2018-01-25T10:10:42.888Z,87.12
2018-01-25T10:11:53.084Z,86.93
2018-01-25T10:13:03.240Z,86.65
2018-01-25T10:14:13.382Z,86.36
2018-01-25T10:15:23.553Z,86.26
2018-01-25T10:16:33.696Z,86.16
2018-01-25T10:17:43.840Z,86.16
2018-01-25T10:18:54.081Z,86.55
2018-01-25T10:20:04.316Z,86.45
2018-01-25T10:21:14.467Z,85.88
2018-01-25T10:22:24.783Z,85.5
2018-01-25T10:23:34.992Z,85.6
2018-01-25T10:24:45.214Z,85.69
2018-01-25T10:25:55.376Z,85.21
2018-01-25T10:27:05.536Z,85.31
2018-01-25T10:28:15.691Z,85.41
2018-01-25T10:29:25.935Z,85.02
2018-01-25T10:30:37.292Z,84.92
2018-01-25T10:31:47.433Z,85.02
2018-01-25T10:32:57.659Z,85.12
2018-01-25T10:34:07.817Z,85.02
2018-01-25T10:35:17.981Z,85.02
2018-01-25T10:36:28.139Z,84.64
2018-01-25T10:37:38.277Z,84.55
2018-01-25T10:38:48.414Z,84.45
2018-01-25T10:39:58.543Z,84.64
2018-01-25T10:41:08.711Z,84.55
2018-01-25T10:42:18.868Z,84.36
2018-01-25T10:43:29.073Z,83.78
2018-01-25T10:44:39.357Z,84.45
2018-01-25T10:45:49.667Z,84.45
2018-01-25T10:46:59.819Z,83.88
2018-01-25T10:48:10.073Z,83.69
2018-01-25T10:49:20.342Z,83.59
2018-01-25T10:50:30.489Z,83.5
2018-01-25T10:51:40.366Z,83.78
2018-01-25T10:52:50.540Z,83.4
2018-01-25T10:54:00.772Z,83.5
2018-01-25T10:55:10.939Z,83.21
2018-01-25T10:56:21.207Z,83.16
2018-01-25T10:57:31.129Z,83.16
2018-01-25T10:58:41.301Z,83.64
2018-01-25T10:59:51.433Z,83.35
2018-01-25T11:01:01.593Z,83.44
2018-01-25T11:02:11.752Z,83.64
2018-01-25T11:03:21.926Z,83.4
2018-01-25T11:04:32.118Z,83.16
2018-01-25T11:05:42.351Z,83.64
2018-01-25T11:06:52.554Z,83.4
2018-01-25T11:08:02.696Z,83.12
2018-01-25T11:09:12.850Z,83.02
2018-01-25T11:10:22.981Z,83.4
2018-01-25T11:11:33.180Z,83.02
2018-01-25T11:12:43.427Z,83.4
2018-01-25T11:13:53.571Z,83.78
2018-01-25T11:15:03.755Z,83.59
2018-01-25T11:16:13.554Z,83.21
2018-01-25T11:17:23.807Z,83.21
2018-01-25T11:18:33.917Z,83.78
2018-01-25T11:19:44.090Z,83.31
2018-01-25T11:20:54.231Z,83.78
2018-01-25T11:22:04.359Z,83.88
2018-01-25T11:23:14.498Z,83.88
2018-01-25T11:24:24.674Z,83.69
2018-01-25T11:25:34.818Z,84.07
2018-01-25T11:26:45.100Z,83.88
2018-01-25T11:27:55.325Z,83.88
2018-01-25T11:29:05.535Z,84.55
2018-01-25T11:30:15.697Z,84.45
2018-01-25T11:31:25.678Z,84.26
2018-01-25T11:32:35.865Z,84.64
2018-01-25T11:33:46.105Z,84.45
2018-01-25T11:34:56.238Z,84.26
2018-01-25T11:36:06.450Z,84.36
2018-01-25T11:37:16.604Z,84.36
2018-01-25T11:38:26.731Z,84.55
2018-01-25T11:39:36.883Z,84.55
2018-01-25T11:40:47.043Z,84.36
2018-01-25T11:41:57.284Z,84.36
2018-01-25T11:43:10.653Z,84.55
2018-01-25T11:44:20.825Z,84.74
2018-01-25T11:45:30.984Z,84.74
2018-01-25T11:46:41.131Z,84.45
2018-01-25T11:47:51.285Z,84.83
2018-01-25T11:49:01.461Z,84.64
2018-01-25T11:50:11.570Z,84.83
2018-01-25T11:51:21.708Z,84.74
2018-01-25T11:52:31.910Z,84.83
2018-01-25T11:53:42.045Z,85.21
2018-01-25T11:54:52.337Z,85.02
2018-01-25T11:56:02.569Z,85.21
2018-01-25T11:57:12.762Z,85.12
2018-01-25T11:58:22.962Z,85.02
2018-01-25T11:59:33.186Z,85.21
2018-01-25T12:00:43.337Z,85.41
2018-01-25T12:01:53.610Z,85.02
2018-01-25T12:03:03.917Z,85.31
2018-01-25T12:04:13.788Z,85.12
2018-01-25T12:05:23.897Z,85.6
2018-01-25T12:06:34.084Z,85.5
2018-01-25T12:07:44.201Z,85.5
2018-01-25T12:08:54.436Z,85.21
2018-01-25T12:10:04.612Z,85.12
2018-01-25T12:11:14.789Z,85.6
2018-01-25T12:12:24.925Z,85.41
2018-01-25T12:13:35.103Z,85.6
2018-01-25T12:14:46.212Z,85.5
2018-01-25T12:15:56.366Z,85.88
2018-01-25T12:17:06.537Z,85.69
2018-01-25T12:18:16.735Z,86.36
2018-01-25T12:19:27.027Z,86.26
2018-01-25T12:20:37.215Z,86.26
2018-01-25T12:21:47.351Z,86.55
2018-01-25T12:22:57.616Z,86.45
2018-01-25T12:24:07.769Z,86.45
2018-01-25T12:25:17.963Z,86.26
2018-01-25T12:26:29.167Z,86.07
2018-01-25T12:27:39.429Z,86.65
2018-01-25T12:28:49.644Z,86.55
2018-01-25T12:29:59.860Z,86.65
2018-01-25T12:31:09.994Z,87.21
2018-01-25T12:32:20.356Z,86.74
2018-01-25T12:33:30.690Z,87.12
2018-01-25T12:34:40.842Z,87.12
2018-01-25T12:35:51.010Z,87.69
2018-01-25T12:37:01.224Z,87.6
2018-01-25T12:38:11.459Z,87.31
2018-01-25T12:39:21.625Z,87.31
2018-01-25T12:40:31.894Z,88.07
2018-01-25T12:41:42.078Z,87.98
2018-01-25T12:42:52.377Z,88.26
2018-01-25T12:44:02.660Z,88.17
2018-01-25T12:45:12.874Z,88.64
2018-01-25T12:46:23.095Z,88.17
2018-01-25T12:47:33.276Z,88.17
2018-01-25T12:48:43.497Z,88.36
2018-01-25T12:49:53.697Z,88.55
2018-01-25T12:51:03.839Z,88.74
2018-01-25T12:52:14.044Z,88.74
2018-01-25T12:53:24.318Z,89.03
2018-01-25T12:54:34.597Z,89.12
2018-01-25T12:55:44.842Z,89.31
2018-01-25T12:56:54.979Z,89.03
2018-01-25T12:58:05.206Z,89.22
2018-01-25T12:59:15.207Z,89.31
2018-01-25T13:00:25.346Z,88.93
2018-01-25T13:01:35.518Z,89.03
2018-01-25T13:02:45.663Z,89.12
2018-01-25T13:03:55.805Z,89.12
2018-01-25T13:05:05.974Z,89.12
2018-01-25T13:06:16.145Z,89.69
2018-01-25T13:07:26.603Z,89.6
2018-01-25T13:08:36.728Z,90.08
2018-01-25T13:09:46.868Z,89.98
2018-01-25T13:10:58.144Z,89.69
2018-01-25T13:12:08.316Z,90.08
2018-01-25T13:13:18.578Z,89.79
2018-01-25T13:14:28.431Z,90.08
2018-01-25T13:15:38.653Z,90.17
2018-01-25T13:16:48.850Z,89.89
2018-01-25T13:17:58.902Z,90.08
2018-01-25T13:19:09.234Z,90.17
2018-01-25T13:20:19.442Z,90.74
2018-01-25T13:21:29.654Z,90.26
2018-01-25T13:22:39.602Z,90.45
2018-01-25T13:23:49.746Z,90.74
2018-01-25T13:24:59.912Z,91.13
2018-01-25T13:26:10.119Z,90.74
2018-01-25T13:27:20.293Z,90.64
2018-01-25T13:28:30.463Z,91.41
2018-01-25T13:29:40.346Z,91.22
2018-01-25T13:30:50.562Z,91.31
2018-01-25T13:32:00.750Z,91.22
2018-01-25T13:33:11.004Z,91.13
2018-01-25T13:34:21.216Z,91.31
2018-01-25T13:35:31.405Z,91.22
2018-01-25T13:36:41.536Z,91.13
2018-01-25T13:37:51.909Z,91.41
2018-01-25T13:39:02.086Z,91.31
2018-01-25T13:40:12.244Z,91.31
2018-01-25T13:41:22.454Z,91.13
2018-01-25T13:42:32.598Z,91.22
2018-01-25T13:43:42.770Z,91.5
2018-01-25T13:44:52.904Z,91.41
2018-01-25T13:46:03.125Z,91.13
2018-01-25T13:47:13.290Z,91.03
2018-01-25T13:48:23.438Z,90.64
2018-01-25T13:49:33.674Z,90.64
2018-01-25T13:50:43.818Z,90.74
2018-01-25T13:51:53.702Z,91.41
2018-01-25T13:53:03.835Z,91.31
2018-01-25T13:54:13.997Z,91.22
2018-01-25T13:55:24.166Z,91.03
2018-01-25T13:56:34.074Z,91.22
2018-01-25T13:57:44.276Z,91.13
2018-01-25T13:58:54.483Z,91.22
2018-01-25T14:00:04.561Z,91.31
2018-01-25T14:01:14.562Z,91.13
2018-01-25T14:02:24.813Z,91.41
2018-01-25T14:03:35.041Z,91.79
2018-01-25T14:04:45.211Z,91.79
2018-01-25T14:05:55.368Z,91.69
2018-01-25T14:07:05.592Z,91.79
2018-01-25T14:08:15.745Z,91.88
2018-01-25T14:09:25.882Z,91.69
2018-01-25T14:10:35.788Z,91.98
2018-01-25T14:11:45.973Z,91.6
2018-01-25T14:12:56.147Z,91.6
2018-01-25T14:14:05.929Z,91.6
2018-01-25T14:15:16.110Z,91.6
2018-01-25T14:16:26.286Z,91.79
2018-01-25T14:17:36.485Z,91.41
2018-01-25T14:18:46.373Z,91.79
2018-01-25T14:19:56.505Z,91.98
2018-01-25T14:21:06.690Z,91.88
2018-01-25T14:22:16.844Z,92.17
2018-01-25T14:23:26.990Z,91.79
2018-01-25T14:24:37.156Z,91.88
2018-01-25T14:25:47.426Z,92.17
2018-01-25T14:26:57.708Z,92.17
2018-01-25T14:28:07.925Z,92.27
2018-01-25T14:29:18.176Z,92.36
2018-01-25T14:30:28.378Z,92.36
2018-01-25T14:31:38.572Z,92.36
2018-01-25T14:32:48.823Z,92.17
2018-01-25T14:33:58.979Z,92.27
2018-01-25T14:35:08.908Z,92.08
2018-01-25T14:36:19.042Z,92.93
2018-01-25T14:37:29.255Z,92.46
2018-01-25T14:38:39.161Z,92.65
2018-01-25T14:39:49.366Z,92.27
2018-01-25T14:40:59.516Z,92.93
2018-01-25T14:42:09.676Z,92.65
2018-01-25T14:43:19.882Z,92.74
2018-01-25T14:44:30.087Z,92.46
2018-01-25T14:45:40.287Z,92.74
2018-01-25T14:46:50.501Z,92.93
2018-01-25T14:48:00.713Z,93.12
2018-01-25T14:49:10.892Z,92.74
2018-01-25T14:50:21.067Z,93.03
2018-01-25T14:51:31.229Z,92.55
2018-01-25T14:52:41.382Z,92.74
2018-01-25T14:53:51.547Z,93.41
2018-01-25T14:55:01.681Z,93.22
2018-01-25T14:56:11.551Z,93.03
2018-01-25T14:57:21.736Z,93.22
2018-01-25T14:58:31.889Z,93.37
2018-01-25T14:59:41.953Z,93.08
2018-01-25T15:00:52.184Z,93.37
2018-01-25T15:02:02.407Z,93.37
2018-01-25T15:03:12.581Z,93.55
2018-01-25T15:04:22.480Z,93.65
2018-01-25T15:05:32.794Z,93.65
2018-01-25T15:06:42.953Z,93.84
2018-01-25T15:07:53.158Z,93.46